Latest Weather Observations for Kiama

IDN60801

Issued at 1:05 pm EDT Monday 24 November 2014 (issued every 30 minutes, with the page automatically refreshed every 10 minutes)

About weather observations | Map of weather stations | Latest weather observations for NSW | Other Formats
Station Details ID: 068242 Name: KIAMA (BOMBO HEADLAND) Lat: -34.65 Lon: 150.86 Height: 15.5 m
Data from the previous 72 hours. | See also: Recent months at Kiama
Date/Time
EDT
Temp
°C
App
Temp
°C
Dew
Point
Rel
Hum
%
Delta-T
°C
Wind Press
QNH
hPa
Press
MSL
hPa
Rain
since 9 am
mm
Dir
 
Spd
km/h
Gust
km/h
Spd
kts
Gust
kts
24/01:00pm 24.8 26.1 19.4 72 3.5 NE 11 17 6 9 - - 0.0
24/12:30pm 25.1 26.7 19.9 73 3.4 NNE 11 13 6 7 - - 0.0
24/12:00pm 24.0 24.7 18.9 73 3.2 NE 13 17 7 9 - - 0.0
24/11:30am 27.3 29.5 20.4 66 4.5 N 9 13 5 7 - - 0.0
24/11:00am 25.6 26.8 19.9 70 3.7 N 13 19 7 10 - - 0.0
24/10:30am 23.0 22.8 19.8 82 2.1 N 20 24 11 13 - - 0.0
24/10:00am 21.7 21.6 18.7 83 1.9 N 17 24 9 13 - - 0.0
24/09:30am 21.8 23.4 19.2 85 1.6 N 9 13 5 7 - - 0.0
24/09:00am 20.8 22.4 18.2 85 1.6 N 7 13 4 7 - - 0.4
24/08:30am 20.8 22.6 18.2 85 1.6 N 6 7 3 4 - - 0.4
24/08:00am 20.5 23.4 18.1 86 1.5 CALM 0 0 0 0 - - 0.4
24/07:30am 20.2 20.5 17.8 86 1.5 S 13 17 7 9 - - 0.4
24/07:00am 19.9 18.8 17.3 85 1.6 S 19 26 10 14 - - 0.4
24/06:30am 19.8 17.3 17.2 85 1.6 S 26 33 14 18 - - 0.4
24/06:00am 19.9 17.0 17.1 84 1.7 S 28 39 15 21 - - 0.4
24/05:30am 20.2 17.0 17.2 83 1.8 S 30 43 16 23 - - 0.4
24/05:00am 20.4 17.2 17.2 82 2.0 SSW 30 35 16 19 - - 0.4
24/04:30am 20.5 18.9 17.5 83 1.8 S 22 30 12 16 - - 0.4
24/04:00am 20.6 21.9 17.2 81 2.1 W 6 9 3 5 - - 0.4
24/03:30am 21.0 20.4 17.6 81 2.1 SSW 17 20 9 11 - - 0.4
24/03:00am 20.8 22.0 17.4 81 2.1 SW 7 9 4 5 - - 0.4
24/02:30am 21.0 19.5 17.8 82 2.0 S 22 30 12 16 - - 0.4
24/02:00am 20.9 21.0 18.3 85 1.6 S 15 20 8 11 - - 0.4
24/01:30am 20.5 22.7 18.3 87 1.4 SSE 4 9 2 5 - - 0.4
24/01:00am 20.6 23.5 18.2 86 1.5 CALM 0 2 0 1 - - 0.4
24/12:30am 20.8 23.4 18.4 86 1.5 NNW 2 9 1 5 - - 0.4
24/12:00am 21.0 21.6 18.6 86 1.5 SSW 13 20 7 11 - - 0.4
 
Date/Time
EDT
Temp
°C
App
Temp
°C
Dew
Point
Rel
Hum
%
Delta-T
°C
Wind Press
QNH
hPa
Press
MSL
hPa
Rain
since 9 am
mm
Dir
 
Spd
km/h
Gust
km/h
Spd
kts
Gust
kts
23/11:30pm 21.0 20.4 18.4 85 1.6 SSW 19 22 10 12 - - 0.4
23/11:00pm 21.0 19.0 18.4 85 1.6 S 26 33 14 18 - - 0.2
23/10:30pm 20.9 19.7 18.5 86 1.5 S 22 32 12 17 - - 0.2
23/10:00pm 20.8 19.4 18.0 84 1.7 S 22 30 12 16 - - 0.2
23/09:30pm 21.6 19.2 18.2 81 2.1 S 28 37 15 20 - - 0.2
23/09:08pm 21.5 16.7 18.3 82 2.0 S 41 59 22 32 - - 0.2
23/09:00pm 21.3 16.0 18.1 82 2.0 S 43 54 23 29 - - 0.2
23/08:30pm 21.8 18.6 18.2 80 2.2 S 32 41 17 22 - - 0.2
23/08:19pm 22.1 19.7 18.3 79 2.4 S 28 41 15 22 - - 0.2
23/08:00pm 22.4 22.3 18.8 80 2.3 SSW 17 20 9 11 - - 0.2
23/07:40pm 21.9 19.8 18.9 83 1.9 SW 28 39 15 21 - - 0.2
23/07:30pm 21.8 17.6 19.0 84 1.8 S 39 54 21 29 - - 0.2
23/07:02pm 22.0 18.5 19.7 87 1.5 SSW 37 57 20 31 - - 0.2
23/07:00pm 22.1 19.1 19.8 87 1.5 SSW 35 44 19 24 - - 0.2
23/06:57pm 22.0 19.0 19.9 88 1.3 SSW 35 44 19 24 - - 0.2
23/06:30pm 21.6 17.5 19.9 90 1.1 S 41 56 22 30 - - 0.2
23/06:15pm 21.5 19.4 19.8 90 1.1 S 30 48 16 26 - - 0.2
23/06:00pm 21.6 19.3 20.1 91 1.0 S 32 41 17 22 - - 0.2
23/05:30pm 21.1 18.0 19.6 91 1.0 S 35 46 19 25 - - 0.2
23/05:00pm 21.1 17.9 19.4 90 1.1 S 35 54 19 29 - - 0.2
23/04:56pm 21.4 18.4 19.9 91 1.0 S 35 54 19 29 - - 0.2
23/04:30pm 21.1 19.5 19.2 89 1.2 S 26 33 14 18 - - 0.0
23/04:00pm 21.7 21.4 19.6 88 1.3 S 20 26 11 14 - - 0.0
23/03:30pm 21.8 23.3 19.0 84 1.8 SE 9 13 5 7 - - 0.0
23/03:00pm 22.7 24.9 19.5 82 2.0 SE 7 13 4 7 - - 0.0
23/02:30pm 22.8 25.1 19.4 81 2.2 E 6 9 3 5 - - 0.0
23/02:00pm 24.0 26.7 20.7 82 2.2 ENE 7 15 4 8 - - 0.0
23/01:30pm 23.6 26.2 20.5 83 2.0 ENE 7 11 4 6 - - 0.0
23/01:00pm 23.0 23.7 19.6 81 2.2 NE 15 19 8 10 - - 0.0
23/12:30pm 23.7 24.6 20.0 80 2.4 NE 15 19 8 10 - - 0.0
23/12:00pm 23.6 24.2 19.5 78 2.6 NE 15 19 8 10 - - 0.0
23/11:30am 24.3 25.7 20.4 79 2.5 NNE 13 19 7 10 - - 0.0
23/11:00am 23.8 25.4 19.9 79 2.5 NE 11 13 6 7 - - 0.0
23/10:30am 23.6 25.5 19.7 79 2.5 NE 9 11 5 6 - - 0.0
23/10:00am 23.1 25.3 19.3 79 2.4 NE 6 9 3 5 - - 0.0
23/09:30am 23.2 25.4 19.6 80 2.3 NE 7 9 4 5 - - 0.0
23/09:00am 23.1 25.7 20.1 83 1.9 E 6 7 3 4 - - 0.0
23/08:30am 22.4 24.9 19.8 85 1.7 SE 6 7 3 4 - - 0.0
23/08:00am 22.0 24.8 19.7 87 1.5 S 4 7 2 4 - - 0.0
23/07:30am 21.1 24.4 19.0 88 1.3 CALM 0 4 0 2 - - 0.0
23/07:00am 20.7 23.8 18.6 88 1.3 CALM 0 0 0 0 - - 0.0
23/06:30am 20.0 22.4 18.0 88 1.2 N 2 7 1 4 - - 0.0
23/06:00am 19.6 20.9 17.6 88 1.2 N 7 11 4 6 - - 0.0
23/05:30am 19.3 21.4 17.3 88 1.2 NW 2 4 1 2 - - 0.0
23/05:00am 19.2 21.3 17.3 89 1.2 N 2 6 1 3 - - 0.0
23/04:30am 18.6 20.9 16.8 89 1.1 CALM 0 0 0 0 - - 0.0
23/04:00am 18.6 20.2 16.8 89 1.1 WNW 4 9 2 5 - - 0.0
23/03:30am 18.9 20.2 17.0 89 1.1 NW 6 9 3 5 - - 0.0
23/03:00am 18.7 19.4 17.0 90 1.0 NW 9 11 5 6 - - 0.0
23/02:30am 19.0 19.7 17.1 89 1.2 NNW 9 13 5 7 - - 0.0
23/02:00am 18.8 19.8 16.9 89 1.1 NW 7 11 4 6 - - 0.0
23/01:30am 18.9 20.2 17.0 89 1.1 NW 6 9 3 5 - - 0.0
23/01:00am 18.9 19.6 17.0 89 1.1 NW 9 11 5 6 - - 0.0
23/12:30am 19.3 20.1 17.4 89 1.2 NNW 9 13 5 7 - - 0.0
23/12:00am 19.1 20.2 17.2 89 1.2 WNW 7 11 4 6 - - 0.0
 
Date/Time
EDT
Temp
°C
App
Temp
°C
Dew
Point
Rel
Hum
%
Delta-T
°C
Wind Press
QNH
hPa
Press
MSL
hPa
Rain
since 9 am
mm
Dir
 
Spd
km/h
Gust
km/h
Spd
kts
Gust
kts
22/11:30pm 19.3 20.7 17.4 89 1.2 NW 6 9 3 5 - - 0.0
22/11:00pm 19.4 20.7 17.5 89 1.2 NW 7 9 4 5 - - 0.0
22/10:30pm 20.1 21.9 18.2 89 1.2 NNW 6 7 3 4 - - 0.0
22/10:00pm 20.4 20.5 18.3 88 1.3 N 15 20 8 11 - - 0.0
22/09:30pm 20.4 20.9 18.3 88 1.3 N 13 20 7 11 - - 0.0
22/09:00pm 20.5 20.6 18.3 87 1.4 N 15 20 8 11 - - 0.0
22/08:30pm 20.4 20.4 18.0 86 1.5 N 15 20 8 11 - - 0.0
22/08:00pm 20.4 19.2 17.6 84 1.7 N 20 26 11 14 - - 0.0
22/07:30pm 20.6 19.5 17.2 81 2.1 N 19 24 10 13 - - 0.0
22/07:00pm 20.6 18.7 16.8 79 2.3 N 22 28 12 15 - - 0.0
22/06:30pm 20.7 19.0 16.3 76 2.6 N 20 28 11 15 - - 0.0
22/06:00pm 21.1 19.6 16.3 74 2.9 NNE 19 24 10 13 - - 0.0
22/05:30pm 21.2 20.1 16.4 74 2.9 NNE 17 22 9 12 - - 0.0
22/05:00pm 21.0 19.4 16.0 73 3.0 NNE 19 24 10 13 - - 0.0
22/04:30pm 21.1 19.8 15.9 72 3.1 NNE 17 20 9 11 - - 0.0
22/04:00pm 21.4 19.8 15.9 71 3.3 NNE 19 22 10 12 - - 0.0
22/03:30pm 22.2 21.7 16.0 68 3.7 NNE 13 19 7 10 - - 0.0
22/03:00pm 22.9 22.5 16.2 66 4.1 NE 13 19 7 10 - - 0.0
22/02:30pm 21.9 20.9 15.5 67 3.8 NNE 15 19 8 10 - - 0.0
22/02:00pm 22.7 21.2 15.3 63 4.4 NE 17 20 9 11 - - 0.0
22/01:30pm 23.0 21.7 15.8 64 4.3 NNE 17 22 9 12 - - 0.0
22/01:00pm 22.5 21.1 15.6 65 4.1 NE 17 20 9 11 - - 0.0
22/12:30pm 22.5 22.2 15.4 64 4.2 NE 11 19 6 10 - - 0.0
22/12:00pm 22.3 21.8 14.9 63 4.4 NE 11 19 6 10 - - 0.0
22/11:30am 22.6 22.3 15.4 64 4.3 NE 11 19 6 10 - - 0.0
22/11:00am 22.3 21.2 15.2 64 4.2 ENE 15 20 8 11 - - 0.0
22/10:30am 22.3 22.4 15.4 65 4.1 ENE 9 15 5 8 - - 0.0
22/10:00am 22.4 23.3 16.0 67 3.9 NE 6 9 3 5 - - 0.0
22/09:30am 21.7 22.1 15.3 67 3.8 NE 7 13 4 7 - - 0.0
22/09:00am 21.3 22.1 14.9 67 3.8 ENE 4 7 2 4 - - 0.0
22/08:30am 20.5 21.2 14.6 69 3.4 SE 4 7 2 4 - - 0.0
22/08:00am 20.6 21.5 15.2 71 3.2 SE 4 7 2 4 - - 0.0
22/07:30am 19.8 21.0 15.9 78 2.3 S 4 9 2 5 - - 0.0
22/07:00am 19.1 20.7 16.0 82 1.8 SW 2 4 1 2 - - 0.0
22/06:30am 18.4 18.5 15.5 83 1.7 SSW 9 11 5 6 - - 0.0
22/06:00am 18.2 18.7 15.5 84 1.6 SSW 7 11 4 6 - - 0.0
22/05:30am 18.1 18.7 15.2 83 1.7 SSW 6 9 3 5 - - 0.0
22/05:00am 18.8 19.5 15.7 82 1.8 SW 6 9 3 5 - - 0.0
22/04:30am 19.0 19.3 15.9 82 1.8 SSW 9 11 5 6 - - 0.0
22/04:00am 19.0 19.8 15.9 82 1.8 SSW 6 9 3 5 - - 0.0
22/03:30am 19.0 19.8 15.9 82 1.8 SSW 6 7 3 4 - - 0.0
22/03:00am 18.9 19.5 15.8 82 1.8 SSW 7 11 4 6 - - 0.0
22/02:30am 19.3 19.5 15.8 80 2.1 SSW 9 11 5 6 - - 0.0
22/02:00am 19.6 19.5 15.9 79 2.2 S 11 15 6 8 - - 0.0
22/01:30am 19.6 18.4 16.1 80 2.1 S 17 22 9 12 - - 0.0
22/01:00am 19.8 19.4 16.3 80 2.1 S 13 19 7 10 - - 0.0
22/12:30am 19.7 16.9 16.3 81 2.0 SSE 26 30 14 16 - - 0.0
22/12:00am 19.9 17.6 16.7 82 1.9 S 24 30 13 16 - - 0.0
 
Date/Time
EDT
Temp
°C
App
Temp
°C
Dew
Point
Rel
Hum
%
Delta-T
°C
Wind Press
QNH
hPa
Press
MSL
hPa
Rain
since 9 am
mm
Dir
 
Spd
km/h
Gust
km/h
Spd
kts
Gust
kts
21/11:30pm 19.9 16.9 16.7 82 1.9 S 28 33 15 18 - - 0.0
21/11:00pm 19.9 16.8 16.5 81 2.0 S 28 35 15 19 - - 0.0
21/10:30pm 20.3 17.3 16.9 81 2.1 S 28 35 15 19 - - 0.0
21/10:00pm 20.4 17.5 17.0 81 2.1 S 28 37 15 20 - - 0.0
21/09:30pm 20.5 17.5 16.9 80 2.2 S 28 37 15 20 - - 0.0
21/09:00pm 20.5 17.7 17.3 82 2.0 S 28 37 15 20 - - 0.0
21/08:30pm 20.7 17.7 17.7 83 1.8 S 30 39 16 21 - - 0.0
21/08:00pm 20.8 17.8 17.8 83 1.9 S 30 41 16 22 - - 0.0
21/07:30pm 21.0 17.7 18.0 83 1.9 S 32 39 17 21 - - 0.0
21/07:00pm 21.3 17.4 17.9 81 2.1 S 35 43 19 23 - - 0.0
21/06:30pm 21.9 18.4 17.9 78 2.5 S 33 43 18 23 - - 0.0
21/06:00pm 22.5 19.4 17.4 73 3.1 S 30 39 16 21 - - 0.0
21/05:30pm 22.8 19.2 17.3 71 3.4 S 32 41 17 22 - - 0.0
21/05:00pm 22.9 20.1 18.2 75 2.9 S 30 37 16 20 - - 0.0
21/04:30pm 23.2 20.2 18.7 76 2.8 SSE 32 39 17 21 - - 0.0
21/04:27pm 23.3 21.1 18.8 76 2.8 SSE 28 39 15 21 - - 0.0
21/04:00pm 24.8 27.2 19.6 73 3.3 E 6 9 3 5 - - 0.0
21/03:30pm 24.9 27.5 19.3 71 3.6 ESE 4 9 2 5 - - 0.0
21/03:00pm 25.2 27.4 19.3 70 3.8 E 6 9 3 5 - - 0.0
21/02:30pm 25.2 27.2 19.1 69 3.9 ENE 7 13 4 7 - - 0.0
21/02:00pm 25.1 26.8 18.5 67 4.2 E 7 11 4 6 - - 0.0
21/01:30pm 24.6 26.0 17.8 66 4.3 E 7 11 4 6 - - 0.0

Other Formats:

Comma delimited format used in spreadsheet applications
http://www.bom.gov.au/fwo/IDN60801/IDN60801.95749.axf

JavaScript Object Notation format (JSON) in row-major order
http://www.bom.gov.au/fwo/IDN60801/IDN60801.95749.json